D/T METAR WX W/DIR W/SPE G/SPE TEMP DEWP
19/03/19 02:50 EGQK 190250Z AUTO 21006KT 9999 SCT090/// BKN150/// 06/04 Q1018 SSW (210°) 6.9mph 6°C 4°C
19/03/19 01:50 EGQK 190150Z AUTO 21009KT 9999 BKN130/// 06/03 Q1018 SSW (210°) 10.4mph 6°C 3°C
19/03/19 00:50 EGQK 190050Z AUTO 21007KT 9999 FEW037/// 05/03 Q1018 SSW (210°) 8.1mph 5°C 3°C
18/03/19 23:50 EGQK 182350Z AUTO 22004KT 9999 SCT190/// 04/02 Q1018 SW (220°) 4.6mph 4°C 2°C
18/03/19 22:50 EGQK 182250Z AUTO 21003KT 9999 NCD 04/02 Q1018 SSW (210°) 3.5mph 4°C 2°C
18/03/19 21:50 EGQK 182150Z AUTO 21004KT 9999 NCD 05/03 Q1018 SSW (210°) 4.6mph 5°C 3°C
18/03/19 20:50 EGQK 182050Z AUTO 21005KT 9999 FEW035/// 05/03 Q1018 SSW (210°) 5.8mph 5°C 3°C
18/03/19 19:50 EGQK 181950Z AUTO 22005KT 9999 SCT050/// 06/02 Q1018 SW (220°) 5.8mph 6°C 2°C
18/03/19 18:50 EGQK 181850Z AUTO 19005KT 9999 FEW036/// 07/03 Q1017 S (190°) 5.8mph 7°C 3°C
18/03/19 17:50 EGQK 181750Z AUTO 10004KT 9999 BKN039/// 08/03 Q1017 E (100°) 4.6mph 8°C 3°C
18/03/19 16:50 EGQK 181650Z AUTO 07003KT 9999 BKN040/// 08/04 Q1016 ENE (70°) 3.5mph 8°C 4°C
18/03/19 15:50 EGQK 181550Z AUTO 03005KT 9999 OVC037/// 08/03 Q1016 NNE (30°) 5.8mph 8°C 3°C
18/03/19 14:50 EGQK 181450Z AUTO 02006KT 9999 BKN041/// 08/03 Q1016 NNE (20°) 6.9mph 8°C 3°C
18/03/19 13:50 EGQK 181350Z AUTO 36005KT 9999 BKN041/// BKN070/// 08/03 Q1015 N (360°) 5.8mph 8°C 3°C
18/03/19 12:50 EGQK 181250Z AUTO 24004KT 9999 SCT038/// 09/02 Q1015 WSW (240°) 4.6mph 9°C 2°C
18/03/19 11:50 EGQK 181150Z AUTO 23005KT 9999 FEW029/// 09/02 Q1015 SW (230°) 5.8mph 9°C 2°C
18/03/19 10:50 EGQK 181050Z AUTO 25004KT 9999 NCD 08/02 Q1015 WSW (250°) 4.6mph 8°C 2°C
18/03/19 09:50 EGQK 180950Z AUTO 21006KT 9999 NCD 07/02 Q1014 SSW (210°) 6.9mph 7°C 2°C
18/03/19 08:50 EGQK 180850Z AUTO 21006KT 9999 NCD 05/01 Q1014 SSW (210°) 6.9mph 5°C 1°C
18/03/19 07:50 EGQK 180750Z AUTO 21005KT 9999 FEW120/// 02/M00 Q1013 SSW (210°) 5.8mph 2°C 0°C
18/03/19 06:50 EGQK 180650Z AUTO 23003KT 9999 OVC120/// M00/M02 Q1013 SW (230°) 3.5mph 0°C -2°C
18/03/19 05:50 EGQK 180550Z AUTO 21004KT 9999 OVC130/// 00/M02 Q1012 SSW (210°) 4.6mph 0°C -2°C
18/03/19 04:50 EGQK 180450Z AUTO 22004KT 9999 BKN140/// 01/M02 Q1012 SW (220°) 4.6mph 1°C -2°C
18/03/19 03:50 EGQK 180350Z AUTO 23006KT 9999 SCT050/// BKN150/// 01/M02 Q1012 SW (230°) 6.9mph 1°C -2°C
18/03/19 02:50 EGQK 180250Z AUTO 23006KT 9999 NCD 01/M02 Q1012 SW (230°) 6.9mph 1°C -2°C
18/03/19 01:50 EGQK 180150Z AUTO 22005KT 9999 FEW050/// 01/M01 Q1012 SW (220°) 5.8mph 1°C -1°C
18/03/19 00:50 EGQK 180050Z AUTO 23003KT 9999 FEW050/// 02/M01 Q1011 SW (230°) 3.5mph 2°C -1°C
17/03/19 23:50 EGQK 172350Z AUTO 27009KT 9999 BKN045/// 03/01 Q1011 W (270°) 10.4mph 3°C 1°C
17/03/19 22:50 EGQK 172250Z AUTO 26006KT 9999 SCT032/// BKN050/// 03/01 Q1011 W (260°) 6.9mph 3°C 1°C
17/03/19 21:50 EGQK 172150Z AUTO 26011KT 9999 BKN050/// 04/01 Q1010 W (260°) 12.7mph 4°C 1°C
17/03/19 20:50 EGQK 172050Z AUTO 30013KT 9999 BKN060/// 04/01 Q1009 WNW (300°) 15.0mph 4°C 1°C
17/03/19 19:50 EGQK 171950Z AUTO 29010KT 9999 SCT050/// 04/00 Q1008 RERA WNW (290°) 11.5mph 4°C 0°C
17/03/19 18:50 EGQK 171850Z AUTO 30012KT 9999 SCT060/// 04/00 Q1007 WNW (300°) 13.8mph 4°C 0°C
17/03/19 17:50 EGQK 171750Z AUTO 31013KT 9999 SCT050/// 05/01 Q1006 RERA NW (310°) 15.0mph 5°C 1°C
17/03/19 16:50 EGQK 171650Z AUTO 30013KT 9999 -RA FEW038/// BKN050/// 06/02 Q1005 -RA WNW (300°) 15.0mph 6°C 2°C
17/03/19 15:50 EGQK 171550Z AUTO 31015G25KT 9999 RA FEW025/// SCT031/// BKN050/// 05/03 Q1003 RA NW (310°) 17.3mph 28.8mph 5°C 3°C
17/03/19 14:50 EGQK 171450Z AUTO 33019KT 9999 BKN045/// 05/03 Q1002 RERA NNW (330°) 21.9mph 5°C 3°C
17/03/19 13:50 EGQK 171350Z AUTO 32019G30KT 2500 -RA FEW027/// BKN060/// 04/02 Q1001 -RA NW (320°) 21.9mph 34.5mph 4°C 2°C
17/03/19 12:50 EGQK 171250Z AUTO 34021G35KT 9999 RA FEW027/// SCT050/// 04/02 Q0999 RA NNW (340°) 24.2mph 40.3mph 4°C 2°C
17/03/19 11:50 EGQK 171150Z AUTO 31011KT 9999 FEW017/// BKN037/// 04/03 Q0997 RERA NW (310°) 12.7mph 4°C 3°C
17/03/19 10:50 EGQK 171050Z AUTO 30013KT 7000 RA FEW031/// BKN041/// 05/04 Q0995 RA WNW (300°) 15.0mph 5°C 4°C
17/03/19 09:50 EGQK 170950Z AUTO 30017KT 8000 RA BKN015/// BKN021/// 05/03 Q0994 RA WNW (300°) 19.6mph 5°C 3°C
17/03/19 08:50 EGQK 170850Z AUTO 26015KT 9999 FEW023/// BKN031/// 04/02 Q0992 W (260°) 17.3mph 4°C 2°C
17/03/19 07:50 EGQK 170750Z AUTO 26015KT 9999 FEW030/// 04/02 Q0990 W (260°) 17.3mph 4°C 2°C
17/03/19 06:50 EGQK 170650Z AUTO 25012KT 9999 BKN048/// 03/01 Q0989 WSW (250°) 13.8mph 3°C 1°C
17/03/19 05:50 EGQK 170550Z AUTO 26013KT 9999 SCT018/// BKN060/// 03/02 Q0989 RERA W (260°) 15.0mph 3°C 2°C
17/03/19 04:50 EGQK 170450Z AUTO 27017KT 9999 BKN023/// SCT050/// 04/02 Q0988 RERA W (270°) 19.6mph 4°C 2°C
17/03/19 03:50 EGQK 170350Z AUTO 25014KT 9999 -RA BKN021/// SCT034/// 03/01 Q0987 -RA WSW (250°) 16.1mph 3°C 1°C
17/03/19 02:50 EGQK 170250Z AUTO 25012KT 9999 -RA SCT016/// BKN021/// 03/02 Q0987 -RA WSW (250°) 13.8mph 3°C 2°C
17/03/19 01:50 EGQK 170150Z AUTO 26013KT 9999 -RA SCT023/// BKN070/// 03/02 Q0987 -RA W (260°) 15.0mph 3°C 2°C
17/03/19 00:50 EGQK 170050Z AUTO 25012KT 9999 BKN024/// SCT030/// 03/01 Q0986 RERA WSW (250°) 13.8mph 3°C 1°C
16/03/19 23:50 EGQK 162350Z AUTO 25013KT 9999 SCT024/// SCT040/// 03/02 Q0986 WSW (250°) 15.0mph 3°C 2°C
16/03/19 22:50 EGQK 162250Z AUTO 26012KT 9999 SCT017/// BKN030/// 03/02 Q0986 RERA W (260°) 13.8mph 3°C 2°C
16/03/19 21:50 EGQK 162150Z AUTO 27015KT 9999 FEW028/// BKN043/// 03/02 Q0985 W (270°) 17.3mph 3°C 2°C
16/03/19 20:50 EGQK 162050Z AUTO 28012KT 9999 FEW011/// BKN050/// 03/02 Q0985 RERA W (280°) 13.8mph 3°C 2°C
16/03/19 19:50 EGQK 161950Z AUTO 30011KT 7000 RA BKN007/// SCT018/// 02/02 Q0985 RA WNW (300°) 12.7mph 2°C 2°C
16/03/19 18:50 EGQK 161850Z AUTO 30012KT 8000 RA BKN007/// 02/02 Q0985 RA WNW (300°) 13.8mph 2°C 2°C
16/03/19 17:50 EGQK 161750Z AUTO 33013KT 6000 RA BKN007/// BKN021/// 02/02 Q0984 RA NNW (330°) 15.0mph 2°C 2°C
16/03/19 16:50 EGQK 161650Z AUTO 35013KT 7000 RA BKN007/// BKN011/// 02/02 Q0984 RA N (350°) 15.0mph 2°C 2°C
16/03/19 15:50 EGQK 161550Z AUTO 36010KT 7000 RA BKN007/// 02/01 Q0984 RA N (360°) 11.5mph 2°C 1°C
16/03/19 14:50 EGQK 161450Z AUTO 04007KT 8000 RA BKN007/// BKN016/// 02/01 Q0985 RA NE (40°) 8.1mph 2°C 1°C
16/03/19 13:50 EGQK 161350Z AUTO 05009KT 9999 RA BKN007/// 03/02 Q0985 RA NE (50°) 10.4mph 3°C 2°C
16/03/19 12:50 EGQK 161250Z AUTO 07008KT 9999 -RA FEW007/// SCT009/// BKN028/// 03/02 Q0987 -RA ENE (70°) 9.2mph 3°C 2°C
16/03/19 11:50 EGQK 161150Z AUTO 07008KT 9999 -RA BKN035/// BKN050/// 03/02 Q0988 -RA ENE (70°) 9.2mph 3°C 2°C
16/03/19 10:50 EGQK 161050Z AUTO 09005KT 9999 -RA BKN045/// 03/02 Q0989 -RA E (90°) 5.8mph 3°C 2°C
16/03/19 09:50 EGQK 160950Z AUTO 15005KT 9999 RA FEW009/// SCT032/// BKN044/// 03/01 Q0990 RA SSE (150°) 5.8mph 3°C 1°C
16/03/19 08:50 EGQK 160850Z AUTO 18006KT 9999 -RA FEW032/// BKN040/// BKN050/// 03/01 Q0991 -RA S (180°) 6.9mph 3°C 1°C
16/03/19 07:50 EGQK 160750Z AUTO 18007KT 9999 BKN046/// 04/00 Q0992 S (180°) 8.1mph 4°C 0°C
16/03/19 06:50 EGQK 160650Z AUTO 21002KT 9999 BKN050/// 03/M00 Q0992 SSW (210°) 2.3mph 3°C 0°C
16/03/19 05:50 EGQK 160550Z AUTO 19004KT 9999 BKN080/// 04/M00 Q0993 S (190°) 4.6mph 4°C 0°C
16/03/19 04:50 EGQK 160450Z AUTO 20008KT 9999 SCT110/// 03/M00 Q0994 SSW (200°) 9.2mph 3°C 0°C
16/03/19 03:50 EGQK 160350Z AUTO 23008KT 9999 SCT130/// 03/00 Q0995 SW (230°) 9.2mph 3°C 0°C
16/03/19 02:50 EGQK 160250Z AUTO 21006KT 9999 NCD 03/M00 Q0995 SSW (210°) 6.9mph 3°C 0°C
16/03/19 01:50 EGQK 160150Z AUTO 22007KT 9999 NCD 03/00 Q0996 SW (220°) 8.1mph 3°C 0°C
16/03/19 00:50 EGQK 160050Z AUTO 24012KT 9999 NCD 03/00 Q0996 WSW (240°) 13.8mph 3°C 0°C
15/03/19 23:50 EGQK 152350Z AUTO 23011KT 9999 FEW060/// 04/01 Q0997 SW (230°) 12.7mph 4°C 1°C
15/03/19 22:50 EGQK 152250Z AUTO 22013KT 9999 NCD 03/00 Q0997 SW (220°) 15.0mph 3°C 0°C
15/03/19 21:50 EGQK 152150Z AUTO 25014KT 9999 FEW045/// 04/01 Q0997 WSW (250°) 16.1mph 4°C 1°C
15/03/19 20:50 EGQK 152050Z AUTO 24015KT 9999 NCD 04/01 Q0997 WSW (240°) 17.3mph 4°C 1°C
15/03/19 19:50 EGQK 151950Z AUTO 24016KT 9999 NCD 03/01 Q0996 WSW (240°) 18.4mph 3°C 1°C
15/03/19 18:50 EGQK 151850Z AUTO 24018KT 9999 NCD 03/01 Q0996 WSW (240°) 20.7mph 3°C 1°C
15/03/19 17:50 EGQK 151750Z AUTO 24021KT 9999 SCT040/// 04/02 Q0995 WSW (240°) 24.2mph 4°C 2°C
15/03/19 16:50 EGQK 151650Z AUTO 25022KT 9999 FEW044/// 05/02 Q0994 RERA WSW (250°) 25.3mph 5°C 2°C
15/03/19 15:50 EGQK 151550Z AUTO 25022KT 9999 NCD 05/03 Q0993 RERA WSW (250°) 25.3mph 5°C 3°C
15/03/19 14:50 EGQK 151450Z AUTO 28021KT 3600 +RA BKN013/// 04/03 Q0992 +RA W (280°) 24.2mph 4°C 3°C
15/03/19 13:50 EGQK 151350Z AUTO 25019KT 9999 SCT011/// SCT018/// 05/04 Q0991 RERA WSW (250°) 21.9mph 5°C 4°C
15/03/19 12:50 EGQK 151250Z AUTO 25023G37KT 9999 FEW016/// 05/03 Q0991 RERA WSW (250°) 26.5mph 42.6mph 5°C 3°C
15/03/19 11:50 EGQK 151150Z AUTO 26022KT 9999 FEW031/// SCT038/// 06/03 Q0990 RERA W (260°) 25.3mph 6°C 3°C
15/03/19 10:50 EGQK 151050Z AUTO 24018KT 9999 FEW016/// 06/02 Q0989 RERA WSW (240°) 20.7mph 6°C 2°C
15/03/19 09:50 EGQK 150950Z AUTO 25019KT 9999 FEW050/// 06/03 Q0989 RERA WSW (250°) 21.9mph 6°C 3°C
15/03/19 08:50 EGQK 150850Z AUTO 25016KT 9999 // SCT033/// SCT044/// BKN050/// 05/03 Q0988 WSW (250°) 18.4mph 5°C 3°C
15/03/19 07:50 EGQK 150750Z AUTO 24014KT 9999 SCT037/// BKN050/// 04/02 Q0988 RERA WSW (240°) 16.1mph 4°C 2°C
15/03/19 06:50 EGQK 150650Z AUTO 24013KT 9999 SCT040/// SCT070/// 04/03 Q0987 RERA WSW (240°) 15.0mph 4°C 3°C
15/03/19 05:50 EGQK 150550Z AUTO 24013KT 9999 BKN025/// SCT045/// 06/03 Q0986 RERA WSW (240°) 15.0mph 6°C 3°C
15/03/19 04:50 EGQK 150450Z AUTO 23006KT 9999 SCT032/// SCT038/// BKN050/// 04/03 Q0986 RERA SW (230°) 6.9mph 4°C 3°C
15/03/19 03:50 EGQK 150350Z AUTO 23008KT 9999 -RA FEW036/// BKN050/// 05/03 Q0986 -RA SW (230°) 9.2mph 5°C 3°C
15/03/19 02:50 EGQK 150250Z AUTO 23010KT 9999 -RA BKN040/// 05/03 Q0987 -RA SW (230°) 11.5mph 5°C 3°C
15/03/19 01:50 EGQK 150150Z AUTO 24011KT 9999 -RA SCT038/// BKN044/// 06/03 Q0988 -RA WSW (240°) 12.7mph 6°C 3°C
15/03/19 00:50 EGQK 150050Z AUTO 23011KT 9999 -RA BKN050/// SCT120/// 06/02 Q0989 -RA SW (230°) 12.7mph 6°C 2°C
14/03/19 23:50 EGQK 142350Z AUTO 21012KT 9999 FEW039/// BKN090/// 06/02 Q0990 SSW (210°) 13.8mph 6°C 2°C
14/03/19 22:50 EGQK 142250Z AUTO 19006KT 9999 BKN120/// 05/02 Q0991 RERA S (190°) 6.9mph 5°C 2°C
14/03/19 21:50 EGQK 142150Z AUTO 20008KT 9999 FEW130/// 05/02 Q0992 SSW (200°) 9.2mph 5°C 2°C
14/03/19 20:50 EGQK 142050Z AUTO 23008KT 9999 FEW045/// 05/03 Q0993 SW (230°) 9.2mph 5°C 3°C
14/03/19 19:50 EGQK 141950Z AUTO 24013KT 9999 FEW041/// 06/03 Q0993 WSW (240°) 15.0mph 6°C 3°C
14/03/19 18:50 EGQK 141850Z AUTO 25013KT 9999 SCT240/// 06/03 Q0993 WSW (250°) 15.0mph 6°C 3°C
14/03/19 17:50 EGQK 141750Z AUTO 26025KT 9999 SCT046/// 07/03 Q0993 RERA W (260°) 28.8mph 7°C 3°C
14/03/19 16:50 EGQK 141650Z AUTO 25016KT 9999 SCT045/// 08/03 Q0993 RERA WSW (250°) 18.4mph 8°C 3°C
14/03/19 15:50 EGQK 141550Z AUTO 26015KT 9999 -RADZ FEW033/// 08/04 Q0993 -RA -DZ W (260°) 17.3mph 8°C 4°C
14/03/19 14:50 EGQK 141450Z AUTO 26021KT 9999 FEW031/// 08/04 Q0992 RERA W (260°) 24.2mph 8°C 4°C
14/03/19 13:50 EGQK 141350Z AUTO 26024KT 9999 FEW035/// SCT042/// 09/03 Q0992 W (260°) 27.6mph 9°C 3°C
14/03/19 12:50 EGQK 141250Z AUTO 26018KT 9999 FEW046/// 09/03 Q0991 W (260°) 20.7mph 9°C 3°C
14/03/19 11:50 EGQK 141150Z AUTO 26018KT 9999 FEW033/// 08/03 Q0991 W (260°) 20.7mph 8°C 3°C
14/03/19 10:50 EGQK 141050Z AUTO 27017KT 9999 FEW036/// 09/04 Q0990 RERA W (270°) 19.6mph 9°C 4°C
14/03/19 09:50 EGQK 140950Z AUTO 26015KT 9999 FEW031/// 08/04 Q0990 RERA W (260°) 17.3mph 8°C 4°C
14/03/19 08:50 EGQK 140850Z AUTO 26015KT 9999 FEW027/// BKN039/// 07/04 Q0989 W (260°) 17.3mph 7°C 4°C
14/03/19 07:50 EGQK 140750Z AUTO 26017KT 9999 FEW027/// BKN050/// 06/04 Q0987 RERA W (260°) 19.6mph 6°C 4°C
14/03/19 06:50 EGQK 140650Z AUTO 24013KT 9999 SCT035/// 06/04 Q0986 WSW (240°) 15.0mph 6°C 4°C
14/03/19 05:50 EGQK 140550Z AUTO 23009KT 9999 SCT034/// BKN130/// 06/04 Q0985 SW (230°) 10.4mph 6°C 4°C
14/03/19 04:50 EGQK 140450Z AUTO 20006KT 9999 SCT034/// BKN130/// 06/05 Q0985 RERA SSW (200°) 6.9mph 6°C 5°C
14/03/19 03:50 EGQK 140350Z AUTO 25008KT 9999 -RA FEW020/// BKN050/// 06/05 Q0985 -RA WSW (250°) 9.2mph 6°C 5°C
14/03/19 02:50 EGQK 140250Z AUTO 25013KT 9999 RA SCT031/// BKN050/// 07/06 Q0986 RA WSW (250°) 15.0mph 7°C 6°C
14/03/19 01:50 EGQK 140150Z AUTO 24013KT 9999 RA BKN031/// SCT120/// 07/06 Q0987 RA WSW (240°) 15.0mph 7°C 6°C
14/03/19 00:50 EGQK 140050Z AUTO 25012KT 9999 RA FEW025/// BKN031/// BKN050/// 07/06 Q0987 RA WSW (250°) 13.8mph 7°C 6°C
13/03/19 23:50 EGQK 132350Z AUTO 22011KT 9999 RA SCT039/// BKN050/// 06/04 Q0988 RA SW (220°) 12.7mph 6°C 4°C
13/03/19 22:50 EGQK 132250Z AUTO 21011KT 9999 -RA BKN050/// BKN090/// 06/04 Q0990 -RA SSW (210°) 12.7mph 6°C 4°C
13/03/19 21:50 EGQK 132150Z AUTO 22004KT 9999 OVC070/// 05/02 Q0992 SW (220°) 4.6mph 5°C 2°C
13/03/19 20:50 EGQK 132050Z AUTO 22009KT 9999 BKN070/// 06/02 Q0994 SW (220°) 10.4mph 6°C 2°C
13/03/19 19:50 EGQK 131950Z AUTO 24011KT 9999 BKN090/// 06/01 Q0996 WSW (240°) 12.7mph 6°C 1°C
13/03/19 18:50 EGQK 131850Z AUTO 25016KT 9999 FEW080/// BKN120/// 06/02 Q0997 WSW (250°) 18.4mph 6°C 2°C
13/03/19 17:50 EGQK 131750Z AUTO 26015KT 9999 FEW050/// BKN120/// 07/03 Q0998 W (260°) 17.3mph 7°C 3°C
13/03/19 16:50 EGQK 131650Z AUTO 26016KT 9999 SCT036/// BKN046/// 06/03 Q0999 RERA W (260°) 18.4mph 6°C 3°C
13/03/19 15:50 EGQK 131550Z AUTO 25015KT 9999 SCT036/// BKN050/// 08/03 Q0999 WSW (250°) 17.3mph 8°C 3°C
13/03/19 14:50 EGQK 131450Z AUTO 28016KT 9999 SCT026/// BKN050/// 07/05 Q0998 RERA W (280°) 18.4mph 7°C 5°C
13/03/19 13:50 EGQK 131350Z AUTO 27014KT 9999 -RA FEW028/// BKN044/// 07/05 Q0998 -RA W (270°) 16.1mph 7°C 5°C
13/03/19 12:50 EGQK 131250Z AUTO 28019KT 9999 BKN021/// SCT090/// 08/04 Q0998 W (280°) 21.9mph 8°C 4°C
13/03/19 11:50 EGQK 131150Z AUTO 28021KT 9999 FEW030/// BKN047/// 07/04 Q0997 W (280°) 24.2mph 7°C 4°C
13/03/19 10:50 EGQK 131050Z AUTO 29018G28KT 9999 FEW048/// 08/04 Q0996 WNW (290°) 20.7mph 32.2mph 8°C 4°C
13/03/19 09:50 EGQK 130950Z AUTO 28011KT 9999 FEW050/// 07/03 Q0995 W (280°) 12.7mph 7°C 3°C
13/03/19 08:50 EGQK 130850Z AUTO 30014KT 9999 FEW037/// 07/04 Q0993 WNW (300°) 16.1mph 7°C 4°C
13/03/19 07:50 EGQK 130750Z AUTO 31020KT 9999 BKN050/// 06/03 Q0991 RERA NW (310°) 23.0mph 6°C 3°C
13/03/19 06:50 EGQK 130650Z AUTO 30019KT 9999 -RA SCT024/// SCT035/// 06/03 Q0989 -RA WNW (300°) 21.9mph 6°C 3°C
13/03/19 05:50 EGQK 130550Z AUTO 30023KT 9999 BKN026/// SCT039/// 05/04 Q0986 RERA WNW (300°) 26.5mph 5°C 4°C
13/03/19 04:50 EGQK 130450Z AUTO 29023KT 9999 FEW023/// BKN028/// 06/04 Q0984 RERA WNW (290°) 26.5mph 6°C 4°C
13/03/19 03:50 EGQK 130350Z AUTO 29019KT 9999 BKN021/// BKN031/// 06/04 Q0981 WNW (290°) 21.9mph 6°C 4°C